createdAt,value
2022-11-09T00:01:04.275Z,99594.63
2022-11-09T00:03:33.517Z,99599.84
2022-11-09T00:06:01.434Z,99598.06
2022-11-09T00:08:29.653Z,99597.16
2022-11-09T00:11:03.723Z,99591.91
2022-11-09T00:13:31.852Z,99591.97
2022-11-09T00:16:00.270Z,99589.25
2022-11-09T00:18:28.377Z,99594.50
2022-11-09T00:20:58.192Z,99592.81
2022-11-09T00:23:26.052Z,99592.00
2022-11-09T00:25:53.937Z,99592.84
2022-11-09T00:28:21.711Z,99585.84
2022-11-09T00:30:49.509Z,99593.75
2022-11-09T00:33:17.746Z,99596.44
2022-11-09T00:35:45.918Z,99589.47
2022-11-09T00:38:15.119Z,99588.53
2022-11-09T00:40:42.998Z,99591.09
2022-11-09T00:43:10.843Z,99591.09
2022-11-09T00:45:40.508Z,99590.31
2022-11-09T00:48:08.847Z,99599.06
2022-11-09T00:50:36.861Z,99593.84
2022-11-09T00:53:04.933Z,99586.84
2022-11-09T00:55:34.271Z,99591.34
2022-11-09T01:14:57.314Z,99598.31
2022-11-09T01:21:22.256Z,99589.84
2022-11-09T01:36:59.208Z,99596.13
2022-11-09T01:39:27.099Z,99590.06
2022-11-09T01:42:14.334Z,99595.28
2022-11-09T02:08:07.249Z,99590.09
2022-11-09T02:10:47.196Z,99591.72
2022-11-09T02:13:21.542Z,99591.75
2022-11-09T02:15:50.698Z,99596.22
2022-11-09T02:18:19.968Z,99584.94
2022-11-09T02:20:52.228Z,99583.16
2022-11-09T02:23:54.468Z,99579.69
2022-11-09T02:33:15.722Z,99579.63
2022-11-09T02:36:32.184Z,99577.84
2022-11-09T02:39:04.624Z,99563.94
2022-11-09T02:41:42.900Z,99571.84
2022-11-09T02:44:39.676Z,99571.03
2022-11-09T02:53:42.419Z,99563.41
2022-11-09T02:56:12.353Z,99572.97
2022-11-09T03:02:14.096Z,99581.72
2022-11-09T03:04:42.103Z,99580.06
2022-11-09T03:07:10.438Z,99576.59
2022-11-09T03:09:39.732Z,99569.59
2022-11-09T03:12:28.319Z,99576.66
2022-11-09T03:14:59.516Z,99580.97
2022-11-09T03:20:51.831Z,99587.06
2022-11-09T03:23:26.783Z,99587.09
2022-11-09T03:25:54.945Z,99586.13
2022-11-09T03:28:23.048Z,99586.09
2022-11-09T03:31:11.315Z,99604.34
2022-11-09T03:33:45.600Z,99598.22
2022-11-09T03:36:23.020Z,99600.72
2022-11-09T03:38:51.586Z,99607.66
2022-11-09T03:41:19.848Z,99604.09
2022-11-09T03:43:47.704Z,99604.09
2022-11-09T03:46:15.491Z,99610.13
2022-11-09T03:48:43.320Z,99624.03
2022-11-09T03:51:11.609Z,99625.78
2022-11-09T03:53:40.820Z,99617.94
2022-11-09T03:56:18.357Z,99614.50
2022-11-09T03:58:46.350Z,99613.69
2022-11-09T04:04:47.346Z,99617.19
2022-11-09T04:10:29.966Z,99626.84
2022-11-09T04:12:58.465Z,99623.34
2022-11-09T04:15:26.293Z,99619.88
2022-11-09T04:18:40.999Z,99625.97
2022-11-09T04:24:25.561Z,99607.66
2022-11-09T04:26:54.874Z,99600.63
2022-11-09T04:32:39.581Z,99611.09
2022-11-09T04:42:05.033Z,99619.69
2022-11-09T04:45:02.051Z,99619.69
2022-11-09T04:47:31.316Z,99624.94
2022-11-09T04:53:54.344Z,99628.31
2022-11-09T04:56:22.399Z,99638.88
2022-11-09T05:26:06.975Z,99649.38
2022-11-09T05:28:38.436Z,99665.06
2022-11-09T05:31:07.305Z,99664.94
2022-11-09T05:33:35.144Z,99658.94
2022-11-09T05:36:24.067Z,99670.28
2022-11-09T05:45:43.762Z,99671.09
2022-11-09T05:48:34.497Z,99670.28
2022-11-09T09:28:43.000Z,99788.91
2022-11-09T09:41:26.749Z,99793.19
2022-11-09T10:48:30.875Z,99821.38
2022-11-09T10:58:26.627Z,99817.31
2022-11-09T11:01:39.451Z,99819.81
2022-11-09T11:04:27.696Z,99797.16
2022-11-09T11:27:58.819Z,99796.69
2022-11-09T11:35:01.281Z,99785.38
2022-11-09T11:45:18.538Z,99793.25
2022-11-09T11:48:31.757Z,99793.31
2022-11-09T11:51:25.628Z,99790.75
2022-11-09T11:54:25.364Z,99785.38
2022-11-09T11:57:28.915Z,99800.09
2022-11-09T12:00:19.878Z,99790.75
2022-11-09T12:03:39.151Z,99801.25
2022-11-09T12:06:59.254Z,99809.19
2022-11-09T12:10:10.448Z,99793.56
2022-11-09T12:13:11.863Z,99807.53
2022-11-09T12:16:07.544Z,99808.41
2022-11-09T12:19:34.331Z,99805.00
2022-11-09T12:22:39.083Z,99812.88
2022-11-09T12:25:35.012Z,99810.97
2022-11-09T12:28:55.948Z,99815.25
2022-11-09T12:32:00.177Z,99814.75
2022-11-09T12:34:57.060Z,99808.41
2022-11-09T12:37:53.289Z,99818.25
2022-11-09T12:40:48.650Z,99828.72
2022-11-09T12:43:49.687Z,99822.72
2022-11-09T12:46:44.089Z,99820.97
2022-11-09T12:49:37.053Z,99828.72
2022-11-09T12:52:28.824Z,99835.59
2022-11-09T12:55:19.758Z,99825.47
2022-11-09T12:58:06.591Z,99825.63
2022-11-09T13:00:57.190Z,99815.31
2022-11-09T13:03:56.358Z,99829.28
2022-11-09T13:07:51.606Z,99832.78
2022-11-09T13:10:40.563Z,99816.97
2022-11-09T13:13:27.050Z,99822.19
2022-11-09T13:16:33.399Z,99824.84
2022-11-09T13:19:56.898Z,99842.47
2022-11-09T13:23:01.983Z,99829.25
2022-11-09T13:25:53.061Z,99842.84
2022-11-09T13:28:45.292Z,99841.09
2022-11-09T13:32:20.235Z,99835.34
2022-11-09T13:35:59.258Z,99846.13
2022-11-09T13:39:10.239Z,99841.72
2022-11-09T13:41:56.749Z,99843.38
2022-11-09T13:44:45.839Z,99843.28
2022-11-09T13:47:37.126Z,99847.66
2022-11-09T13:50:27.213Z,99850.31
2022-11-09T13:53:50.773Z,99844.81
2022-11-09T13:56:40.676Z,99846.53
2022-11-09T13:59:33.107Z,99851.84
2022-11-09T14:02:23.284Z,99860.66
2022-11-09T14:05:24.996Z,99857.13
2022-11-09T14:08:21.910Z,99860.88
2022-11-09T14:11:36.505Z,99859.09
2022-11-09T14:15:03.715Z,99862.25
2022-11-09T14:18:12.475Z,99851.66
2022-11-09T14:21:17.923Z,99879.69
2022-11-09T14:24:17.938Z,99875.81
2022-11-09T14:27:16.768Z,99876.63
2022-11-09T14:30:18.889Z,99878.38
2022-11-09T14:33:21.897Z,99876.81
2022-11-09T14:36:12.971Z,99893.38
2022-11-09T14:39:04.604Z,99892.63
2022-11-09T14:41:51.975Z,99887.47
2022-11-09T14:44:44.541Z,99895.31
2022-11-09T14:47:37.686Z,99896.16
2022-11-09T14:50:27.791Z,99883.13
2022-11-09T14:53:18.939Z,99899.72
2022-11-09T14:56:10.545Z,99894.63
2022-11-09T14:58:57.936Z,99905.03
2022-11-09T15:02:01.540Z,99915.50
2022-11-09T15:04:54.363Z,99912.88
2022-11-09T15:07:44.413Z,99920.69
2022-11-09T15:10:32.588Z,99919.00
2022-11-09T15:13:27.672Z,99924.25
2022-11-09T15:16:22.459Z,99931.22
2022-11-09T15:19:34.777Z,99933.88
2022-11-09T15:22:50.468Z,99936.53
2022-11-09T15:25:55.290Z,99933.91
2022-11-09T15:28:47.489Z,99944.34
2022-11-09T15:31:33.772Z,99952.25
2022-11-09T15:34:26.727Z,99955.72
2022-11-09T15:37:23.574Z,99960.91
2022-11-09T15:40:13.290Z,99968.75
2022-11-09T15:42:59.703Z,99969.63
2022-11-09T15:45:46.669Z,99969.63
2022-11-09T15:48:33.784Z,99966.13
2022-11-09T15:51:21.595Z,99974.81
2022-11-09T15:54:09.142Z,99975.66
2022-11-09T15:56:55.575Z,99981.75
2022-11-09T15:59:42.135Z,99986.06
2022-11-09T16:02:28.791Z,99990.38
2022-11-09T16:05:15.816Z,100006.88
2022-11-09T16:08:07.391Z,99999.91
2022-11-09T16:10:54.011Z,100012.84
2022-11-09T16:13:40.899Z,100018.06
2022-11-09T16:16:28.722Z,100024.09
2022-11-09T16:19:16.491Z,100014.50
2022-11-09T16:22:02.878Z,100022.31
2022-11-09T16:24:50.440Z,100028.41
2022-11-09T16:27:50.155Z,100022.28
2022-11-09T16:30:38.286Z,100038.69
2022-11-09T16:33:27.164Z,100045.66
2022-11-09T16:36:19.582Z,100050.88
2022-11-09T16:39:12.534Z,100047.41
2022-11-09T16:42:06.796Z,100049.94
2022-11-09T16:44:59.387Z,100060.31
2022-11-09T16:47:50.295Z,100049.88
2022-11-09T16:50:36.911Z,100057.72
2022-11-09T16:53:26.968Z,100049.06
2022-11-09T16:56:13.845Z,100057.72
2022-11-09T16:59:01.888Z,100059.41
2022-11-09T17:01:53.484Z,100061.19
2022-11-09T17:04:40.380Z,100062.91
2022-11-09T17:07:27.338Z,100059.47
2022-11-09T17:10:15.258Z,100067.25
2022-11-09T17:13:01.882Z,100076.69
2022-11-09T17:15:54.644Z,100083.63
2022-11-09T17:18:42.627Z,100083.72
2022-11-09T17:21:30.009Z,100094.16
2022-11-09T17:24:16.705Z,100100.28
2022-11-09T17:27:03.215Z,100100.41
2022-11-09T17:29:49.933Z,100108.22
2022-11-09T17:32:38.482Z,100113.47
2022-11-09T17:35:25.334Z,100116.06
2022-11-09T17:38:12.043Z,100122.16
2022-11-09T17:41:03.241Z,100129.94
2022-11-09T17:43:49.814Z,100122.16
2022-11-09T17:46:36.326Z,100130.00
2022-11-09T17:49:23.957Z,100128.22
2022-11-09T17:52:10.090Z,100137.75
2022-11-09T17:54:56.707Z,100139.44
2022-11-09T17:57:43.318Z,100143.72
2022-11-09T18:00:29.669Z,100145.44
2022-11-09T18:03:18.861Z,100146.19
2022-11-09T18:06:11.539Z,100146.22
2022-11-09T18:09:26.865Z,100153.09
2022-11-09T18:12:04.767Z,100162.56
2022-11-09T18:14:51.034Z,100164.22
2022-11-09T18:17:37.577Z,100166.00
2022-11-09T18:20:23.991Z,100159.91
2022-11-09T18:23:13.000Z,100171.19
2022-11-09T18:25:59.751Z,100176.50
2022-11-09T18:28:46.205Z,100170.34
2022-11-09T18:31:32.380Z,100175.47
2022-11-09T18:34:18.839Z,100178.94
2022-11-09T18:37:05.439Z,100177.22
2022-11-09T18:39:53.294Z,100182.38
2022-11-09T18:42:39.822Z,100194.44
2022-11-09T18:45:27.064Z,100190.06
2022-11-09T18:48:13.404Z,100203.06
2022-11-09T18:51:00.366Z,100203.13
2022-11-09T18:53:48.576Z,100203.16
2022-11-09T18:56:36.395Z,100204.84
2022-11-09T18:59:22.863Z,100216.94
2022-11-09T19:02:12.963Z,100218.63
2022-11-09T19:04:59.337Z,100223.88
2022-11-09T19:07:45.708Z,100241.97
2022-11-09T19:10:35.944Z,100239.38
2022-11-09T19:13:23.846Z,100246.31
2022-11-09T19:16:12.254Z,100246.34
2022-11-09T19:18:58.630Z,100260.19
2022-11-09T19:21:49.105Z,100256.63
2022-11-09T19:24:35.607Z,100261.75
2022-11-09T19:27:22.373Z,100261.78
2022-11-09T19:30:11.718Z,100274.63
2022-11-09T19:32:58.005Z,100273.00
2022-11-09T19:35:52.734Z,100276.28
2022-11-09T19:38:49.157Z,100283.03
2022-11-09T19:41:35.855Z,100294.41
2022-11-09T19:44:22.356Z,100294.41
2022-11-09T19:47:10.166Z,100290.63
2022-11-09T19:49:56.599Z,100307.16
2022-11-09T19:52:42.779Z,100302.88
2022-11-09T19:55:29.352Z,100306.16
2022-11-09T19:58:15.384Z,100317.66
2022-11-09T20:01:03.733Z,100314.78
2022-11-09T20:03:53.471Z,100335.63
2022-11-09T20:06:40.758Z,100333.81
2022-11-09T20:09:30.895Z,100326.88
2022-11-09T20:12:35.628Z,100334.63
2022-11-09T20:15:23.010Z,100341.47
2022-11-09T20:18:09.431Z,100353.63
2022-11-09T20:20:57.797Z,100359.69
2022-11-09T20:23:44.021Z,100368.25
2022-11-09T20:26:30.482Z,100363.13
2022-11-09T20:29:16.900Z,100361.34
2022-11-09T20:32:03.491Z,100369.19
2022-11-09T20:34:50.094Z,100375.03
2022-11-09T20:37:37.921Z,100367.34
2022-11-09T20:40:24.298Z,100378.66
2022-11-09T20:43:11.047Z,100388.91
2022-11-09T20:46:04.156Z,100389.09
2022-11-09T20:48:55.079Z,100392.47
2022-11-09T20:51:41.903Z,100404.38
2022-11-09T20:54:29.434Z,100402.75
2022-11-09T20:57:15.751Z,100406.09
2022-11-09T21:00:02.137Z,100416.25
2022-11-09T21:02:48.791Z,100414.63
2022-11-09T21:05:35.222Z,100419.00
2022-11-09T21:08:21.997Z,100430.09
2022-11-09T21:11:12.900Z,100430.25
2022-11-09T21:13:59.427Z,100433.88
2022-11-09T21:16:45.860Z,100443.31
2022-11-09T21:19:32.305Z,100440.59
2022-11-09T21:22:18.631Z,100443.19
2022-11-09T21:25:24.317Z,100445.69
2022-11-09T21:28:34.259Z,100445.47
2022-11-09T21:31:20.763Z,100439.47
2022-11-09T21:34:07.020Z,100443.84
2022-11-09T21:36:53.895Z,100448.34
2022-11-09T21:39:40.591Z,100452.63
2022-11-09T21:42:27.128Z,100450.88
2022-11-09T21:45:14.919Z,100451.34
2022-11-09T21:48:01.300Z,100452.44
2022-11-09T21:50:47.649Z,100452.28
2022-11-09T21:53:36.985Z,100458.25
2022-11-09T21:56:23.762Z,100472.13
2022-11-09T21:59:10.383Z,100467.63
2022-11-09T22:01:58.288Z,100471.00
2022-11-09T22:04:44.450Z,100481.19
2022-11-09T22:07:31.053Z,100481.31
2022-11-09T22:10:17.522Z,100490.84
2022-11-09T22:13:22.863Z,100483.09
2022-11-09T22:16:09.694Z,100496.75
2022-11-09T22:19:16.784Z,100490.75
2022-11-09T22:22:03.279Z,100502.59
2022-11-09T22:24:49.728Z,100508.56
2022-11-09T22:27:36.271Z,100507.81
2022-11-09T22:30:22.752Z,100508.63
2022-11-09T22:33:08.853Z,100509.31
2022-11-09T22:35:58.580Z,100508.50
2022-11-09T22:38:46.168Z,100511.91
2022-11-09T22:41:33.762Z,100512.03
2022-11-09T22:44:20.005Z,100522.22
2022-11-09T22:47:06.722Z,100519.38
2022-11-09T22:49:53.486Z,100520.22
2022-11-09T22:52:41.239Z,100523.78
2022-11-09T22:55:27.927Z,100530.44
2022-11-09T22:58:14.036Z,100525.53
2022-11-09T23:01:09.162Z,100525.41
2022-11-09T23:03:55.467Z,100539.19
2022-11-09T23:06:41.710Z,100545.88
2022-11-09T23:09:29.577Z,100542.63
2022-11-09T23:12:16.003Z,100563.41
2022-11-09T23:15:05.349Z,100565.03
2022-11-09T23:18:12.268Z,100572.03
2022-11-09T23:21:00.501Z,100570.00
2022-11-09T23:23:48.110Z,100571.88
2022-11-09T23:26:35.750Z,100576.28
2022-11-09T23:29:22.419Z,100579.72
2022-11-09T23:32:08.734Z,100583.09
2022-11-09T23:34:54.876Z,100594.34
2022-11-09T23:37:41.078Z,100603.81
2022-11-09T23:40:27.995Z,100611.31
2022-11-09T23:43:16.599Z,100603.66
2022-11-09T23:46:06.402Z,100610.72
2022-11-09T23:48:53.058Z,100629.59
2022-11-09T23:51:39.330Z,100621.88
2022-11-09T23:54:25.551Z,100621.78
2022-11-09T23:57:12.072Z,100631.38
2022-11-09T23:59:59.847Z,100629.72
